createdAt,value
2017-11-08T00:00:06.015Z,20.13
2017-11-08T00:03:08.110Z,19.37
2017-11-08T00:06:09.429Z,19.43
2017-11-08T00:09:11.535Z,17.97
2017-11-08T00:12:12.878Z,18.40
2017-11-08T00:15:14.202Z,19.00
2017-11-08T00:18:15.534Z,17.63
2017-11-08T00:21:17.650Z,19.17
2017-11-08T00:24:22.945Z,17.63
2017-11-08T00:27:25.049Z,19.30
2017-11-08T00:30:26.405Z,18.10
2017-11-08T00:33:27.742Z,16.30
2017-11-08T00:36:29.067Z,17.53
2017-11-08T00:39:31.146Z,16.77
2017-11-08T00:42:33.199Z,18.50
2017-11-08T00:45:35.317Z,18.00
2017-11-08T00:48:36.676Z,17.43
2017-11-08T00:51:37.981Z,16.97
2017-11-08T00:54:39.334Z,17.30
2017-11-08T00:57:46.696Z,17.93
2017-11-08T01:00:51.906Z,16.73
2017-11-08T01:03:53.265Z,18.40
2017-11-08T01:06:54.611Z,18.30
2017-11-08T01:09:55.943Z,17.20
2017-11-08T01:12:59.000Z,18.57
2017-11-08T01:16:01.102Z,21.27
2017-11-08T01:19:02.435Z,20.00
2017-11-08T01:22:03.729Z,19.87
2017-11-08T01:25:05.064Z,21.37
2017-11-08T01:28:06.386Z,20.17
2017-11-08T01:31:07.750Z,19.40
2017-11-08T01:34:09.093Z,19.87
2017-11-08T01:37:15.263Z,19.43
2017-11-08T01:40:18.437Z,21.67
2017-11-08T01:43:19.801Z,21.60
2017-11-08T01:46:21.167Z,19.80
2017-11-08T01:49:22.510Z,17.57
2017-11-08T01:52:23.866Z,19.50
2017-11-08T01:55:26.022Z,18.03
2017-11-08T01:58:27.382Z,19.80
2017-11-08T02:01:28.726Z,20.40
2017-11-08T02:04:30.057Z,22.13
2017-11-08T02:07:31.421Z,20.90
2017-11-08T02:10:32.846Z,21.70
2017-11-08T02:13:34.954Z,20.37
2017-11-08T02:16:36.342Z,20.93
2017-11-08T02:19:37.674Z,20.27
2017-11-08T02:22:39.104Z,22.20
2017-11-08T02:25:40.460Z,21.70
2017-11-08T02:28:41.793Z,20.43
2017-11-08T02:31:43.161Z,20.13
2017-11-08T02:34:44.562Z,21.40
2017-11-08T02:37:46.690Z,21.27
2017-11-08T02:40:48.101Z,22.10
2017-11-08T02:43:49.511Z,21.30
2017-11-08T02:46:56.900Z,22.40
2017-11-08T02:49:58.254Z,22.10
2017-11-08T02:52:59.613Z,21.53
2017-11-08T02:56:01.707Z,22.23
2017-11-08T02:59:03.066Z,21.73
2017-11-08T03:02:04.437Z,21.23
2017-11-08T03:05:11.900Z,21.10
2017-11-08T03:08:13.208Z,21.77
2017-11-08T03:11:14.617Z,21.40
2017-11-08T03:14:15.977Z,21.10
2017-11-08T03:17:17.331Z,20.27
2017-11-08T03:20:18.662Z,23.03
2017-11-08T03:23:19.970Z,22.77
2017-11-08T03:26:21.320Z,21.70
2017-11-08T03:29:22.661Z,21.80
2017-11-08T03:32:23.958Z,20.10
2017-11-08T03:35:25.301Z,22.30
2017-11-08T03:38:26.691Z,22.10
2017-11-08T03:41:28.030Z,22.40
2017-11-08T03:44:29.379Z,22.40
2017-11-08T03:47:30.827Z,21.80
2017-11-08T03:50:32.133Z,23.37
2017-11-08T03:53:34.218Z,21.60
2017-11-08T03:56:35.568Z,23.17
2017-11-08T03:59:37.107Z,21.10
2017-11-08T04:02:39.144Z,22.40
2017-11-08T04:05:40.480Z,20.27
2017-11-08T04:08:41.825Z,20.70
2017-11-08T04:11:43.147Z,21.90
2017-11-08T04:14:44.506Z,21.80
2017-11-08T04:17:45.875Z,22.57
2017-11-08T04:20:47.244Z,23.90
2017-11-08T04:23:48.583Z,23.10
2017-11-08T04:26:49.946Z,22.37
2017-11-08T04:29:51.311Z,21.60
2017-11-08T04:32:52.629Z,22.03
2017-11-08T04:35:53.944Z,21.47
2017-11-08T04:38:55.288Z,20.67
2017-11-08T04:41:56.582Z,20.53
2017-11-08T04:44:57.931Z,21.50
2017-11-08T04:47:59.310Z,20.97
2017-11-08T04:51:00.642Z,20.90
2017-11-08T04:54:01.998Z,21.43
2017-11-08T04:57:03.377Z,21.33
2017-11-08T05:00:05.452Z,20.50
2017-11-08T05:03:06.898Z,22.73
2017-11-08T05:06:08.938Z,23.63
2017-11-08T05:09:10.254Z,22.90
2017-11-08T05:12:11.619Z,23.10
2017-11-08T05:15:12.934Z,21.87
2017-11-08T05:18:14.274Z,21.00
2017-11-08T05:21:15.606Z,21.40
2017-11-08T05:24:17.651Z,21.53
2017-11-08T05:27:19.018Z,21.60
2017-11-08T05:30:21.435Z,22.10
2017-11-08T05:33:22.784Z,20.40
2017-11-08T05:36:24.090Z,20.07
2017-11-08T05:39:25.423Z,20.97
2017-11-08T05:42:26.729Z,20.70
2017-11-08T05:45:28.107Z,22.07
2017-11-08T05:48:29.464Z,20.93
2017-11-08T05:51:30.868Z,23.67
2017-11-08T05:54:32.203Z,20.93
2017-11-08T05:57:34.280Z,21.10
2017-11-08T06:00:35.642Z,20.90
2017-11-08T06:03:36.968Z,23.53
2017-11-08T06:06:39.043Z,22.70
2017-11-08T06:09:41.129Z,21.90
2017-11-08T06:12:42.502Z,23.57
2017-11-08T06:15:43.830Z,20.80
2017-11-08T06:18:45.184Z,23.40
2017-11-08T06:21:46.585Z,21.83
2017-11-08T06:24:47.913Z,23.00
2017-11-08T06:27:49.250Z,21.40
2017-11-08T06:30:50.610Z,23.17
2017-11-08T06:33:52.690Z,22.70
2017-11-08T06:36:54.063Z,24.30
2017-11-08T06:39:56.181Z,25.63
2017-11-08T06:42:57.510Z,23.67
2017-11-08T06:45:58.870Z,24.67
2017-11-08T06:49:00.361Z,23.83
2017-11-08T06:52:01.681Z,24.07
2017-11-08T06:58:11.033Z,22.00
2017-11-08T07:01:12.401Z,26.37
2017-11-08T07:04:13.785Z,24.70
2017-11-08T07:07:15.125Z,21.60
2017-11-08T07:10:16.675Z,22.87
2017-11-08T07:13:18.007Z,23.73
2017-11-08T07:16:19.399Z,23.00
2017-11-08T07:19:21.458Z,21.97
2017-11-08T07:22:23.274Z,23.63
2017-11-08T07:25:24.599Z,23.03
2017-11-08T07:28:25.895Z,21.30
2017-11-08T07:31:27.218Z,21.50
2017-11-08T07:34:28.522Z,25.17
2017-11-08T07:37:29.837Z,25.23
2017-11-08T07:40:31.185Z,24.27
2017-11-08T07:43:32.534Z,23.00
2017-11-08T07:46:33.833Z,24.77
2017-11-08T07:49:35.868Z,23.80
2017-11-08T07:52:37.185Z,25.87
2017-11-08T07:55:44.634Z,25.90
2017-11-08T07:58:46.863Z,28.07
2017-11-08T08:01:48.189Z,26.40
2017-11-08T08:04:49.491Z,26.80
2017-11-08T08:07:50.785Z,28.10
2017-11-08T08:10:52.119Z,27.23
2017-11-08T08:13:58.560Z,26.60
2017-11-08T08:16:59.867Z,27.67
2017-11-08T08:20:01.179Z,26.47
2017-11-08T08:23:03.211Z,24.00
2017-11-08T08:26:05.527Z,26.10
2017-11-08T08:29:06.886Z,29.53
2017-11-08T08:32:08.224Z,26.50
2017-11-08T08:35:10.299Z,28.57
2017-11-08T08:38:11.620Z,30.10
2017-11-08T08:41:12.993Z,31.53
2017-11-08T08:44:15.007Z,31.33
2017-11-08T08:47:16.318Z,33.60
2017-11-08T08:50:17.619Z,33.77
2017-11-08T08:53:18.981Z,35.17
2017-11-08T08:56:20.307Z,35.13
2017-11-08T08:59:21.654Z,34.90
2017-11-08T09:02:23.950Z,35.70
2017-11-08T09:05:25.297Z,37.30
2017-11-08T09:08:26.653Z,31.77
2017-11-08T09:11:27.970Z,33.30
2017-11-08T09:14:29.325Z,34.50
2017-11-08T09:17:30.656Z,33.37
2017-11-08T09:20:32.032Z,33.37
2017-11-08T09:23:33.425Z,37.90
2017-11-08T09:26:35.514Z,35.03
2017-11-08T09:29:38.984Z,33.07
2017-11-08T09:32:41.106Z,33.20
2017-11-08T09:35:42.524Z,29.73
2017-11-08T09:38:43.849Z,31.47
2017-11-08T09:41:46.043Z,30.87
2017-11-08T09:44:47.409Z,30.60
2017-11-08T09:47:48.779Z,32.27
2017-11-08T09:50:50.181Z,40.83
2017-11-08T09:53:52.184Z,44.60
2017-11-08T09:56:53.535Z,43.50
2017-11-08T09:59:54.835Z,41.57
2017-11-08T10:02:56.883Z,41.27
2017-11-08T10:05:58.204Z,42.83
2017-11-08T10:09:02.403Z,40.07
2017-11-08T10:12:08.727Z,39.60
2017-11-08T10:15:10.073Z,37.83
2017-11-08T10:18:13.494Z,40.60
2017-11-08T10:21:15.522Z,40.63
2017-11-08T10:24:16.864Z,40.97
2017-11-08T10:27:18.176Z,39.10
2017-11-08T10:30:19.514Z,40.00
2017-11-08T10:33:21.556Z,39.30
2017-11-08T10:36:22.870Z,38.07
2017-11-08T10:39:24.203Z,40.23
2017-11-08T10:45:27.574Z,40.17
2017-11-08T10:48:32.776Z,42.23
2017-11-08T10:51:34.169Z,43.53
2017-11-08T10:54:35.541Z,37.00
2017-11-08T10:57:36.868Z,41.20
2017-11-08T11:00:42.233Z,38.90
2017-11-08T11:03:43.602Z,41.17
2017-11-08T11:06:44.991Z,38.93
2017-11-08T11:09:48.038Z,27.80
2017-11-08T11:12:49.388Z,35.43
2017-11-08T11:15:52.519Z,35.63
2017-11-08T11:18:54.593Z,39.87
2017-11-08T11:22:01.498Z,39.23
2017-11-08T11:25:02.805Z,38.00
2017-11-08T11:28:04.131Z,38.63
2017-11-08T11:31:05.480Z,39.23
2017-11-08T11:34:06.841Z,41.07
2017-11-08T11:37:08.245Z,39.50
2017-11-08T11:40:09.639Z,38.37
2017-11-08T11:43:11.019Z,38.83
2017-11-08T11:46:12.347Z,39.00
2017-11-08T11:49:13.704Z,38.67
2017-11-08T11:52:15.104Z,39.57
2017-11-08T11:55:16.460Z,38.10
2017-11-08T11:58:17.850Z,37.83
2017-11-08T12:01:19.188Z,39.40
2017-11-08T12:04:21.064Z,41.20
2017-11-08T12:07:22.443Z,39.40
2017-11-08T12:10:26.591Z,39.07
2017-11-08T12:13:28.009Z,39.03
2017-11-08T12:16:29.426Z,37.30
2017-11-08T12:19:30.831Z,39.77
2017-11-08T12:22:32.920Z,39.00
2017-11-08T12:25:34.473Z,37.97
2017-11-08T12:28:35.817Z,38.10
2017-11-08T12:31:37.195Z,39.10
2017-11-08T12:34:40.032Z,38.03
2017-11-08T12:37:42.747Z,38.80
2017-11-08T12:40:44.430Z,40.27
2017-11-08T12:43:47.763Z,38.73
2017-11-08T12:46:49.145Z,35.40
2017-11-08T12:49:51.752Z,38.37
2017-11-08T12:52:54.220Z,37.20
2017-11-08T12:55:56.192Z,35.23
2017-11-08T12:58:57.718Z,36.00
2017-11-08T13:02:01.803Z,36.40
2017-11-08T13:05:04.108Z,34.97
2017-11-08T13:08:08.175Z,33.50
2017-11-08T13:11:15.958Z,34.10
2017-11-08T13:14:17.363Z,36.13
2017-11-08T13:17:18.723Z,35.47
2017-11-08T13:20:21.064Z,33.67
2017-11-08T13:23:22.456Z,35.93
2017-11-08T13:26:24.348Z,37.17
2017-11-08T13:29:26.760Z,34.60
2017-11-08T13:32:28.581Z,36.30
2017-11-08T13:35:29.992Z,37.13
2017-11-08T13:38:32.077Z,38.13
2017-11-08T13:41:35.400Z,37.93
2017-11-08T13:44:36.924Z,36.40
2017-11-08T13:47:38.405Z,34.90
2017-11-08T13:50:39.841Z,36.70
2017-11-08T13:53:42.609Z,34.60
2017-11-08T13:56:45.792Z,35.70
2017-11-08T13:59:47.723Z,35.60
2017-11-08T14:02:50.010Z,34.67
2017-11-08T14:05:52.986Z,35.13
2017-11-08T14:08:56.153Z,44.73
2017-11-08T14:11:57.566Z,37.87
2017-11-08T14:15:00.066Z,35.13
2017-11-08T14:18:03.687Z,33.40
2017-11-08T14:21:05.163Z,36.20
2017-11-08T14:24:06.533Z,36.63
2017-11-08T14:27:07.871Z,36.10
2017-11-08T14:30:15.861Z,35.90
2017-11-08T14:33:18.481Z,36.47
2017-11-08T14:36:21.298Z,35.40
2017-11-08T14:39:25.334Z,35.00
2017-11-08T14:42:28.704Z,37.00
2017-11-08T14:45:31.366Z,35.90
2017-11-08T14:48:32.777Z,36.03
2017-11-08T14:51:36.165Z,34.30
2017-11-08T14:54:39.349Z,35.27
2017-11-08T14:57:40.710Z,34.43
2017-11-08T15:00:42.054Z,35.37
2017-11-08T15:03:43.401Z,35.57
2017-11-08T15:06:44.711Z,36.13
2017-11-08T15:09:46.025Z,36.37
2017-11-08T15:12:47.326Z,38.30
2017-11-08T15:15:49.455Z,36.70
2017-11-08T15:18:50.789Z,35.27
2017-11-08T15:21:52.072Z,38.90
2017-11-08T15:24:53.468Z,37.07
2017-11-08T15:27:55.074Z,34.50
2017-11-08T15:30:56.425Z,34.07
2017-11-08T15:33:57.931Z,37.70
2017-11-08T15:36:59.324Z,36.97
2017-11-08T15:40:00.716Z,39.03
2017-11-08T15:43:02.854Z,34.97
2017-11-08T15:46:06.279Z,35.90
2017-11-08T15:49:14.448Z,35.50
2017-11-08T15:52:15.797Z,38.40
2017-11-08T15:55:17.174Z,32.33
2017-11-08T15:58:18.541Z,44.57
2017-11-08T16:01:23.725Z,38.07
2017-11-08T16:04:25.932Z,35.87
2017-11-08T16:07:27.359Z,38.67
2017-11-08T16:10:28.735Z,38.17
2017-11-08T16:13:30.265Z,35.80
2017-11-08T16:16:32.456Z,38.60
2017-11-08T16:19:33.797Z,36.90
2017-11-08T16:22:35.191Z,38.00
2017-11-08T16:25:37.285Z,34.87
2017-11-08T16:28:38.631Z,33.70
2017-11-08T16:31:39.992Z,34.10
2017-11-08T16:34:41.355Z,34.67
2017-11-08T16:37:42.718Z,35.33
2017-11-08T16:40:44.071Z,52.90
2017-11-08T16:43:45.423Z,39.87
2017-11-08T16:46:46.766Z,33.57
2017-11-08T16:49:48.178Z,35.73
2017-11-08T16:52:49.730Z,36.40
2017-11-08T16:55:51.039Z,35.00
2017-11-08T16:58:52.453Z,36.10
2017-11-08T17:01:53.832Z,37.20
2017-11-08T17:04:55.213Z,35.57
2017-11-08T17:07:57.319Z,37.17
2017-11-08T17:10:58.654Z,35.50
2017-11-08T17:13:59.972Z,35.30
2017-11-08T17:17:01.290Z,34.20
2017-11-08T17:20:02.743Z,32.87
2017-11-08T17:23:04.070Z,36.20
2017-11-08T17:26:05.392Z,33.23
2017-11-08T17:29:07.491Z,37.33
2017-11-08T17:32:08.796Z,38.27
2017-11-08T17:35:10.915Z,39.67
2017-11-08T17:38:13.111Z,34.87
2017-11-08T17:41:14.514Z,36.00
2017-11-08T17:44:16.433Z,36.70
2017-11-08T17:47:18.447Z,36.67
2017-11-08T17:50:20.224Z,37.53
2017-11-08T17:53:21.627Z,35.27
2017-11-08T17:56:23.738Z,35.67
2017-11-08T17:59:25.140Z,38.60
2017-11-08T18:02:27.268Z,35.70
2017-11-08T18:05:28.727Z,38.03
2017-11-08T18:08:30.526Z,37.47
2017-11-08T18:11:32.674Z,39.03
2017-11-08T18:14:34.139Z,37.13
2017-11-08T18:17:36.307Z,36.07
2017-11-08T18:20:37.660Z,37.80
2017-11-08T18:23:39.218Z,36.20
2017-11-08T18:26:41.398Z,35.10
2017-11-08T18:29:43.535Z,40.20
2017-11-08T18:32:44.974Z,37.70
2017-11-08T18:35:46.416Z,36.27
2017-11-08T18:38:47.757Z,40.20
2017-11-08T18:41:49.204Z,39.10
2017-11-08T18:44:50.616Z,43.37
2017-11-08T18:47:52.799Z,40.20
2017-11-08T18:50:54.942Z,42.07
2017-11-08T18:53:56.315Z,43.30
2017-11-08T18:56:58.410Z,40.90
2017-11-08T18:59:59.881Z,41.30
2017-11-08T19:03:01.316Z,42.97
2017-11-08T19:06:02.683Z,46.67
2017-11-08T19:09:04.122Z,41.47
2017-11-08T19:12:05.540Z,41.00
2017-11-08T19:15:07.708Z,41.27
2017-11-08T19:18:09.851Z,40.20
2017-11-08T19:21:11.287Z,43.97
2017-11-08T19:24:12.728Z,46.43
2017-11-08T19:27:14.137Z,48.47
2017-11-08T19:30:16.295Z,48.70
2017-11-08T19:33:17.690Z,50.40
2017-11-08T19:36:19.166Z,67.30
2017-11-08T19:39:20.555Z,54.70
2017-11-08T19:42:21.948Z,52.10
2017-11-08T19:45:23.410Z,53.83
2017-11-08T19:48:24.919Z,52.23
2017-11-08T19:51:27.852Z,52.37
2017-11-08T19:54:29.310Z,50.80
2017-11-08T19:57:30.794Z,52.57
2017-11-08T20:00:32.228Z,51.50
2017-11-08T20:03:33.761Z,53.30
2017-11-08T20:06:35.215Z,49.97
2017-11-08T20:09:36.744Z,51.00
2017-11-08T20:12:38.179Z,52.30
2017-11-08T20:15:40.405Z,51.37
2017-11-08T20:18:41.865Z,51.40
2017-11-08T20:21:43.308Z,47.30
2017-11-08T20:24:44.809Z,48.10
2017-11-08T20:27:46.612Z,55.57
2017-11-08T20:30:48.359Z,51.07
2017-11-08T20:33:49.771Z,51.13
2017-11-08T20:36:51.177Z,55.47
2017-11-08T20:39:52.533Z,51.67
2017-11-08T20:42:53.949Z,53.00
2017-11-08T20:45:56.150Z,55.20
2017-11-08T20:48:57.515Z,51.20
2017-11-08T20:51:58.840Z,55.37
2017-11-08T20:55:00.182Z,49.77
2017-11-08T20:58:01.603Z,49.93
2017-11-08T21:01:03.757Z,54.53
2017-11-08T21:04:05.248Z,53.17
2017-11-08T21:07:07.956Z,51.40
2017-11-08T21:10:10.866Z,49.30
2017-11-08T21:13:13.722Z,53.50
2017-11-08T21:16:16.650Z,52.97
2017-11-08T21:19:19.455Z,55.60
2017-11-08T21:22:21.563Z,52.60
2017-11-08T21:25:23.184Z,54.77
2017-11-08T21:28:24.592Z,55.90
2017-11-08T21:31:25.952Z,52.80
2017-11-08T21:34:27.433Z,50.10
2017-11-08T21:37:29.383Z,50.70
2017-11-08T21:40:31.389Z,50.30
2017-11-08T21:43:32.839Z,50.77
2017-11-08T21:46:34.916Z,64.53
2017-11-08T21:49:36.809Z,51.93
2017-11-08T21:52:39.909Z,52.07
2017-11-08T21:55:41.406Z,51.10
2017-11-08T21:58:43.736Z,50.90
2017-11-08T22:01:46.035Z,52.00
2017-11-08T22:04:47.575Z,52.67
2017-11-08T22:07:50.214Z,50.60
2017-11-08T22:10:52.602Z,49.73
2017-11-08T22:13:54.790Z,52.07
2017-11-08T22:16:56.155Z,47.67
2017-11-08T22:19:57.522Z,49.57
2017-11-08T22:23:00.179Z,51.80
2017-11-08T22:26:02.352Z,52.97
2017-11-08T22:29:04.477Z,55.03
2017-11-08T22:32:05.893Z,52.50
2017-11-08T22:35:08.371Z,53.80
2017-11-08T22:38:09.805Z,52.10
2017-11-08T22:41:11.286Z,53.27
2017-11-08T22:44:13.446Z,54.17
2017-11-08T22:47:14.837Z,55.17
2017-11-08T22:50:16.216Z,53.30
2017-11-08T22:53:17.749Z,53.73
2017-11-08T22:56:19.062Z,51.10
2017-11-08T22:59:21.244Z,55.10
2017-11-08T23:02:22.926Z,54.87
2017-11-08T23:05:24.289Z,55.37
2017-11-08T23:08:26.425Z,54.27
2017-11-08T23:11:27.753Z,50.20
2017-11-08T23:14:29.916Z,51.47
2017-11-08T23:17:32.057Z,53.00
2017-11-08T23:20:33.486Z,49.67
2017-11-08T23:23:34.903Z,51.23
2017-11-08T23:26:37.081Z,51.20
2017-11-08T23:29:38.841Z,51.83
2017-11-08T23:32:40.209Z,52.27
2017-11-08T23:35:41.585Z,52.60
2017-11-08T23:38:43.696Z,47.50
2017-11-08T23:41:45.816Z,52.50
2017-11-08T23:44:47.176Z,50.97
2017-11-08T23:47:48.537Z,51.47
2017-11-08T23:50:49.952Z,53.10
2017-11-08T23:53:51.361Z,56.00
2017-11-08T23:56:53.550Z,53.50
